Decoded Metar for PAEN (KENAI in AK, USA) (IATA:ENA) | Meteo·Mobile Aviation Weather
aviador You're here:

PAEN Decoded Metar

KENAI in AK, USA
Report Time2018-10-23 04:53:00
UTC Time2018-10-23 05:24:57
Flight Rules vfr VFR
Wind050° at 05 kt
W.Decomp.*RWY 01: 4.7 kt HW 1.8 kt RCW
W.Rank050° ranks 7
Current wind is below 050° avg. (6.3)
Visibility9999 m
Phenomena:N/A
Clouds:N/A
Expected CloudBase > 400 ft AGL from Temp-Dew spread
CeilingNone
Temp03°C (ISA -12)
Dew Point02°C (93% RH)
AAT-0.5°C
QNH995 hPa
Density Alt-630 ft
Elevation89 ft
Report Wrong Elevation
Raw Report
PAEN 230453Z 05005KT 10SM CLR 03/02 A2939=

Extra information for PAEN:More info

Metar Taf Metar & Taf Last 4 Metars F.Rules Stats Wind Profile Meteogram Temp Stats Airport Information Weather charts Add Link Nearby VenuesMetar ALERT Operation Metar Decoded Social comments

AIRNAV info for PAEN